createdAt,value
2017-12-16T00:01:59.074Z,1.33
2017-12-16T00:04:26.672Z,1.03
2017-12-16T00:06:54.379Z,1.80
2017-12-16T00:09:22.744Z,1.10
2017-12-16T00:11:50.351Z,1.40
2017-12-16T00:14:17.981Z,1.60
2017-12-16T00:16:45.601Z,1.17
2017-12-16T00:19:13.189Z,1.20
2017-12-16T00:21:41.539Z,1.10
2017-12-16T00:24:09.164Z,1.20
2017-12-16T00:26:36.746Z,0.90
2017-12-16T00:29:04.324Z,1.10
2017-12-16T00:31:31.901Z,1.50
2017-12-16T00:33:59.470Z,1.23
2017-12-16T00:36:27.101Z,1.23
2017-12-16T00:38:54.717Z,1.03
2017-12-16T00:41:22.329Z,1.50
2017-12-16T00:43:49.935Z,1.30
2017-12-16T00:46:17.550Z,1.40
2017-12-16T00:48:45.194Z,1.60
2017-12-16T00:51:12.776Z,1.33
2017-12-16T00:53:40.484Z,1.43
2017-12-16T00:56:08.104Z,1.30
2017-12-16T00:58:35.685Z,1.10
2017-12-16T01:01:03.317Z,1.33
2017-12-16T01:03:30.894Z,1.20
2017-12-16T01:05:58.535Z,1.30
2017-12-16T01:08:26.109Z,1.40
2017-12-16T01:10:54.564Z,1.00
2017-12-16T01:13:22.196Z,1.00
2017-12-16T01:15:49.800Z,1.23
2017-12-16T01:18:17.389Z,1.20
2017-12-16T01:20:44.970Z,1.40
2017-12-16T01:23:13.423Z,1.30
2017-12-16T01:25:41.030Z,1.40
2017-12-16T01:28:08.655Z,1.60
2017-12-16T01:30:36.239Z,1.23
2017-12-16T01:33:04.582Z,1.20
2017-12-16T01:35:43.886Z,1.17
2017-12-16T01:38:23.442Z,1.20
2017-12-16T01:40:51.029Z,1.70
2017-12-16T01:43:18.662Z,1.20
2017-12-16T01:45:46.236Z,1.70
2017-12-16T01:48:13.813Z,1.13
2017-12-16T01:50:41.405Z,1.33
2017-12-16T01:53:08.985Z,1.50
2017-12-16T01:55:36.610Z,1.33
2017-12-16T01:58:05.022Z,1.83
2017-12-16T02:00:32.627Z,1.47
2017-12-16T02:03:00.230Z,0.93
2017-12-16T02:05:27.870Z,1.07
2017-12-16T02:07:56.261Z,1.13
2017-12-16T02:10:24.626Z,1.17
2017-12-16T02:12:53.004Z,1.27
2017-12-16T02:15:21.345Z,1.20
2017-12-16T02:17:48.940Z,1.20
2017-12-16T02:20:17.337Z,1.40
2017-12-16T02:22:45.694Z,1.07
2017-12-16T02:25:13.294Z,1.20
2017-12-16T02:27:40.908Z,1.30
2017-12-16T02:30:08.521Z,1.17
2017-12-16T02:35:44.236Z,1.40
2017-12-16T02:38:11.897Z,1.33
2017-12-16T02:40:39.508Z,1.40
2017-12-16T02:43:07.156Z,1.07
2017-12-16T02:45:34.829Z,1.47
2017-12-16T02:48:02.446Z,1.60
2017-12-16T02:50:30.085Z,1.20
2017-12-16T02:52:57.682Z,1.90
2017-12-16T02:55:25.279Z,1.50
2017-12-16T02:57:52.895Z,1.40
2017-12-16T03:00:20.558Z,1.00
2017-12-16T03:02:48.213Z,1.10
2017-12-16T03:05:15.826Z,1.40
2017-12-16T03:07:43.475Z,1.20
2017-12-16T03:10:11.860Z,1.43
2017-12-16T03:12:39.518Z,1.10
2017-12-16T03:15:07.907Z,1.53
2017-12-16T03:17:35.553Z,1.10
2017-12-16T03:20:03.961Z,1.03
2017-12-16T03:22:31.610Z,1.17
2017-12-16T03:24:59.234Z,1.33
2017-12-16T03:27:26.887Z,1.50
2017-12-16T03:29:54.476Z,1.50
2017-12-16T03:32:22.108Z,1.33
2017-12-16T03:34:49.719Z,1.70
2017-12-16T03:37:17.326Z,1.00
2017-12-16T03:39:44.979Z,1.40
2017-12-16T03:42:13.523Z,1.63
2017-12-16T03:44:41.130Z,1.33
2017-12-16T03:47:08.713Z,1.40
2017-12-16T03:49:36.302Z,1.40
2017-12-16T03:52:03.920Z,1.33
2017-12-16T03:54:31.506Z,1.13
2017-12-16T03:56:59.097Z,1.33
2017-12-16T03:59:26.713Z,1.17
2017-12-16T04:01:54.296Z,1.27
2017-12-16T04:04:22.693Z,1.20
2017-12-16T04:06:50.299Z,1.23
2017-12-16T04:09:17.948Z,1.10
2017-12-16T04:11:46.318Z,1.57
2017-12-16T04:14:13.932Z,1.20
2017-12-16T04:16:42.322Z,1.50
2017-12-16T04:19:10.709Z,0.97
2017-12-16T04:21:39.119Z,1.00
2017-12-16T04:24:06.732Z,1.27
2017-12-16T04:26:35.092Z,1.37
2017-12-16T04:29:02.716Z,1.37
2017-12-16T04:31:30.306Z,1.13
2017-12-16T04:33:57.889Z,1.37
2017-12-16T04:36:25.528Z,1.33
2017-12-16T04:38:53.104Z,1.13
2017-12-16T04:41:20.719Z,1.30
2017-12-16T04:43:48.305Z,1.83
2017-12-16T04:46:15.881Z,1.60
2017-12-16T04:48:43.489Z,1.10
2017-12-16T04:51:11.096Z,1.40
2017-12-16T04:53:38.708Z,1.17
2017-12-16T04:56:06.286Z,1.37
2017-12-16T04:58:33.858Z,1.20
2017-12-16T05:01:01.441Z,1.00
2017-12-16T05:03:29.034Z,1.40
2017-12-16T05:05:56.662Z,1.20
2017-12-16T05:08:24.258Z,1.20
2017-12-16T05:10:52.613Z,1.53
2017-12-16T05:13:20.198Z,0.97
2017-12-16T05:15:47.797Z,1.57
2017-12-16T05:18:15.401Z,1.63
2017-12-16T05:20:42.976Z,1.53
2017-12-16T05:23:11.342Z,1.43
2017-12-16T05:25:38.925Z,1.53
2017-12-16T05:28:07.275Z,1.30
2017-12-16T05:30:34.882Z,1.37
2017-12-16T05:33:02.486Z,1.60
2017-12-16T05:35:30.061Z,1.60
2017-12-16T05:37:58.441Z,1.33
2017-12-16T05:40:26.041Z,1.47
2017-12-16T05:42:53.648Z,1.50
2017-12-16T05:45:21.230Z,1.20
2017-12-16T05:47:48.827Z,1.40
2017-12-16T05:50:16.413Z,1.40
2017-12-16T05:52:44.001Z,1.30
2017-12-16T05:55:11.653Z,1.20
2017-12-16T05:57:39.246Z,1.03
2017-12-16T06:00:07.596Z,1.20
2017-12-16T06:02:35.201Z,1.27
2017-12-16T06:05:02.799Z,1.33
2017-12-16T06:07:30.428Z,1.37
2017-12-16T06:09:58.767Z,1.40
2017-12-16T06:12:26.365Z,1.60
2017-12-16T06:14:54.702Z,1.37
2017-12-16T06:17:22.312Z,1.00
2017-12-16T06:19:49.950Z,1.53
2017-12-16T06:22:18.314Z,1.37
2017-12-16T06:24:45.892Z,1.10
2017-12-16T06:27:14.461Z,1.27
2017-12-16T06:29:42.061Z,1.50
2017-12-16T06:32:09.660Z,1.40
2017-12-16T06:34:37.232Z,1.33
2017-12-16T06:37:04.824Z,1.43
2017-12-16T06:39:33.170Z,1.40
2017-12-16T06:42:00.752Z,1.30
2017-12-16T06:44:28.425Z,1.30
2017-12-16T06:46:56.789Z,1.40
2017-12-16T06:49:25.167Z,1.23
2017-12-16T06:52:04.874Z,1.47
2017-12-16T06:57:32.344Z,1.30
2017-12-16T06:59:59.932Z,1.07
2017-12-16T07:02:27.523Z,1.40
2017-12-16T07:04:58.783Z,1.20
2017-12-16T07:07:26.376Z,1.20
2017-12-16T07:09:53.949Z,1.30
2017-12-16T07:12:36.059Z,1.03
2017-12-16T07:15:03.637Z,1.50
2017-12-16T07:17:31.243Z,1.17
2017-12-16T07:19:58.849Z,1.40
2017-12-16T07:22:26.434Z,1.40
2017-12-16T07:24:54.073Z,1.20
2017-12-16T07:27:21.673Z,1.00
2017-12-16T07:29:50.034Z,1.67
2017-12-16T07:32:18.441Z,1.67
2017-12-16T07:34:46.025Z,1.13
2017-12-16T07:37:13.604Z,1.47
2017-12-16T07:39:41.222Z,1.53
2017-12-16T07:42:08.814Z,1.20
2017-12-16T07:44:36.397Z,1.40
2017-12-16T07:47:04.018Z,1.40
2017-12-16T07:49:31.601Z,1.20
2017-12-16T07:54:53.140Z,1.20
2017-12-16T07:57:20.724Z,1.40
2017-12-16T07:59:48.340Z,1.10
2017-12-16T08:02:15.939Z,1.20
2017-12-16T08:04:43.549Z,1.00
2017-12-16T08:07:11.130Z,1.50
2017-12-16T08:09:38.769Z,1.63
2017-12-16T08:12:06.411Z,1.60
2017-12-16T08:14:34.905Z,1.33
2017-12-16T08:17:04.584Z,1.53
2017-12-16T08:19:32.738Z,2.00
2017-12-16T08:22:04.491Z,1.60
2017-12-16T08:24:36.498Z,1.43
2017-12-16T08:27:04.139Z,1.40
2017-12-16T08:29:33.103Z,1.40
2017-12-16T08:32:00.833Z,1.57
2017-12-16T08:34:28.449Z,1.10
2017-12-16T08:36:56.066Z,1.57
2017-12-16T08:39:23.746Z,1.57
2017-12-16T08:41:51.387Z,1.80
2017-12-16T08:44:18.996Z,1.60
2017-12-16T08:46:46.611Z,1.57
2017-12-16T08:49:14.235Z,1.83
2017-12-16T08:51:42.613Z,1.90
2017-12-16T08:54:10.242Z,1.47
2017-12-16T08:56:37.855Z,2.20
2017-12-16T08:59:13.790Z,1.40
2017-12-16T09:01:41.385Z,2.00
2017-12-16T09:04:08.998Z,1.90
2017-12-16T09:06:36.642Z,2.00
2017-12-16T09:09:05.292Z,2.00
2017-12-16T09:11:33.632Z,2.10
2017-12-16T09:14:01.231Z,2.03
2017-12-16T09:16:29.635Z,1.70
2017-12-16T09:18:57.275Z,2.07
2017-12-16T09:21:24.878Z,1.80
2017-12-16T09:24:02.313Z,2.50
2017-12-16T09:29:39.199Z,2.20
2017-12-16T09:32:12.407Z,2.70
2017-12-16T09:34:40.813Z,2.67
2017-12-16T09:37:08.428Z,2.23
2017-12-16T09:39:55.005Z,3.07
2017-12-16T09:42:22.601Z,2.60
2017-12-16T09:44:50.228Z,2.80
2017-12-16T09:47:17.820Z,2.73
2017-12-16T09:49:45.443Z,2.50
2017-12-16T09:52:13.064Z,3.20
2017-12-16T09:54:52.455Z,2.10
2017-12-16T09:57:24.615Z,2.83
2017-12-16T10:00:02.109Z,3.20
2017-12-16T10:05:27.302Z,3.00
2017-12-16T10:10:58.090Z,3.10
2017-12-16T10:13:25.713Z,2.90
2017-12-16T10:16:07.476Z,3.10
2017-12-16T10:18:55.353Z,2.60
2017-12-16T10:30:05.772Z,2.90
2017-12-16T10:32:44.952Z,2.87
2017-12-16T10:35:16.946Z,2.30
2017-12-16T10:37:45.301Z,3.03
2017-12-16T10:40:38.518Z,3.23
2017-12-16T10:43:06.111Z,2.73
2017-12-16T10:45:33.745Z,3.30
2017-12-16T10:48:01.353Z,3.37
2017-12-16T10:53:33.197Z,2.90
2017-12-16T10:56:00.826Z,3.07
2017-12-16T10:58:28.426Z,2.90
2017-12-16T11:00:56.090Z,2.47
2017-12-16T11:03:23.693Z,4.03
2017-12-16T11:05:51.326Z,2.80
2017-12-16T11:08:18.960Z,3.33
2017-12-16T11:10:46.563Z,2.87
2017-12-16T11:16:09.624Z,2.90
2017-12-16T11:18:37.272Z,2.93
2017-12-16T11:21:04.868Z,3.00
2017-12-16T11:23:32.468Z,2.93
2017-12-16T11:26:00.056Z,3.03
2017-12-16T11:28:27.642Z,3.20
2017-12-16T11:30:55.284Z,2.77
2017-12-16T11:33:22.872Z,2.73
2017-12-16T11:35:50.518Z,2.67
2017-12-16T11:38:18.119Z,3.23
2017-12-16T11:40:46.526Z,3.10
2017-12-16T11:43:14.176Z,3.07
2017-12-16T11:45:45.612Z,2.60
2017-12-16T11:48:13.987Z,3.03
2017-12-16T11:53:36.232Z,3.20
2017-12-16T11:56:03.813Z,2.77
2017-12-16T11:58:36.314Z,2.83
2017-12-16T12:01:03.865Z,2.53
2017-12-16T12:03:31.461Z,3.07
2017-12-16T12:05:59.037Z,2.80
2017-12-16T12:08:26.623Z,2.90
2017-12-16T12:10:55.053Z,2.83
2017-12-16T12:13:23.651Z,3.07
2017-12-16T12:15:51.244Z,2.67
2017-12-16T12:18:19.597Z,2.90
2017-12-16T12:20:47.547Z,2.70
2017-12-16T12:23:15.353Z,2.10
2017-12-16T12:25:43.800Z,2.77
2017-12-16T12:28:11.588Z,2.87
2017-12-16T12:30:39.970Z,2.60
2017-12-16T12:33:07.734Z,3.27
2017-12-16T12:35:35.415Z,2.40
2017-12-16T12:38:10.256Z,2.90
2017-12-16T12:40:37.964Z,3.30
2017-12-16T12:43:07.026Z,2.60
2017-12-16T12:45:34.636Z,2.50
2017-12-16T12:48:02.254Z,2.77
2017-12-16T12:50:29.950Z,2.40
2017-12-16T12:52:57.610Z,2.60
2017-12-16T12:55:25.265Z,2.80
2017-12-16T12:57:52.866Z,2.60
2017-12-16T13:00:20.518Z,2.10
2017-12-16T13:02:48.137Z,2.50
2017-12-16T13:05:15.774Z,2.43
2017-12-16T13:07:44.139Z,2.67
2017-12-16T13:10:12.509Z,2.97
2017-12-16T13:12:40.101Z,2.73
2017-12-16T13:15:07.696Z,3.10
2017-12-16T13:17:35.312Z,3.63
2017-12-16T13:20:03.669Z,2.90
2017-12-16T13:22:31.246Z,2.80
2017-12-16T13:24:59.603Z,3.80
2017-12-16T13:27:27.219Z,2.73
2017-12-16T13:29:54.831Z,3.83
2017-12-16T13:38:11.199Z,3.17
2017-12-16T13:40:39.581Z,3.60
2017-12-16T13:43:07.194Z,3.87
2017-12-16T13:45:34.778Z,3.57
2017-12-16T13:48:02.364Z,3.83
2017-12-16T13:50:30.717Z,3.50
2017-12-16T13:52:58.324Z,3.23
2017-12-16T13:55:25.909Z,3.67
2017-12-16T13:57:53.480Z,3.10
2017-12-16T14:00:21.092Z,3.93
2017-12-16T14:02:48.685Z,3.80
2017-12-16T14:05:16.305Z,3.50
2017-12-16T14:07:44.646Z,3.83
2017-12-16T14:10:12.241Z,4.03
2017-12-16T14:12:44.994Z,3.77
2017-12-16T14:15:12.617Z,3.93
2017-12-16T14:17:40.236Z,4.70
2017-12-16T14:20:08.638Z,4.00
2017-12-16T14:22:36.265Z,3.70
2017-12-16T14:25:03.901Z,4.87
2017-12-16T14:27:31.534Z,4.23
2017-12-16T14:30:02.964Z,4.37
2017-12-16T14:32:30.562Z,4.40
2017-12-16T14:34:58.187Z,4.43
2017-12-16T14:37:26.538Z,4.00
2017-12-16T14:39:54.156Z,3.83
2017-12-16T14:42:21.765Z,5.10
2017-12-16T14:44:49.359Z,4.90
2017-12-16T14:47:17.004Z,3.80
2017-12-16T14:49:45.390Z,4.63
2017-12-16T14:52:12.989Z,4.63
2017-12-16T14:54:40.660Z,4.20
2017-12-16T14:57:08.249Z,4.10
2017-12-16T14:59:35.886Z,4.20
2017-12-16T15:02:03.478Z,4.57
2017-12-16T15:04:32.059Z,4.87
2017-12-16T15:06:59.697Z,4.30
2017-12-16T15:09:27.649Z,5.20
2017-12-16T15:11:55.307Z,3.80
2017-12-16T15:14:22.939Z,4.00
2017-12-16T15:16:50.577Z,5.03
2017-12-16T15:19:19.028Z,4.30
2017-12-16T15:21:46.689Z,4.07
2017-12-16T15:24:14.335Z,4.20
2017-12-16T15:26:41.958Z,4.80
2017-12-16T15:29:10.367Z,4.43
2017-12-16T15:31:38.006Z,5.10
2017-12-16T15:34:06.405Z,4.30
2017-12-16T15:36:34.023Z,4.30
2017-12-16T15:39:01.636Z,4.30
2017-12-16T15:41:29.226Z,4.70
2017-12-16T15:43:56.843Z,4.60
2017-12-16T15:46:25.198Z,4.43
2017-12-16T15:48:52.782Z,4.40
2017-12-16T15:51:20.430Z,4.80
2017-12-16T15:53:48.800Z,4.30
2017-12-16T15:56:16.435Z,4.10
2017-12-16T15:58:44.042Z,4.77
2017-12-16T16:01:11.707Z,4.50
2017-12-16T16:03:40.072Z,5.17
2017-12-16T16:06:08.446Z,4.70
2017-12-16T16:08:36.950Z,4.73
2017-12-16T16:11:04.560Z,5.00
2017-12-16T16:13:32.274Z,5.47
2017-12-16T16:16:01.032Z,4.50
2017-12-16T16:18:28.620Z,4.80
2017-12-16T16:20:58.008Z,4.07
2017-12-16T16:23:26.368Z,4.13
2017-12-16T16:25:53.972Z,4.20
2017-12-16T16:28:21.556Z,4.90
2017-12-16T16:30:50.178Z,4.10
2017-12-16T16:33:17.773Z,4.90
2017-12-16T16:35:46.109Z,4.53
2017-12-16T16:38:13.677Z,4.90
2017-12-16T16:40:41.260Z,4.37
2017-12-16T16:43:09.627Z,4.40
2017-12-16T16:45:37.210Z,3.93
2017-12-16T16:48:05.555Z,4.50
2017-12-16T16:50:33.134Z,4.40
2017-12-16T16:53:01.498Z,4.17
2017-12-16T16:55:29.128Z,5.40
2017-12-16T16:57:56.710Z,5.30
2017-12-16T17:00:25.305Z,3.87
2017-12-16T17:02:52.881Z,4.80
2017-12-16T17:05:45.738Z,4.10
2017-12-16T17:08:14.106Z,4.20
2017-12-16T17:10:41.680Z,4.50
2017-12-16T17:13:10.029Z,4.10
2017-12-16T17:15:37.617Z,4.33
2017-12-16T17:18:17.307Z,4.23
2017-12-16T17:20:44.986Z,4.17
2017-12-16T17:23:12.611Z,4.60
2017-12-16T17:25:40.194Z,4.53
2017-12-16T17:28:07.777Z,4.60
2017-12-16T17:30:35.366Z,4.10
2017-12-16T17:33:02.938Z,4.40
2017-12-16T17:35:30.522Z,3.90
2017-12-16T17:37:58.145Z,4.87
2017-12-16T17:40:26.544Z,4.00
2017-12-16T17:42:54.139Z,4.43
2017-12-16T17:45:21.721Z,3.77
2017-12-16T17:47:49.333Z,3.93
2017-12-16T17:50:17.007Z,4.03
2017-12-16T17:52:44.637Z,4.47
2017-12-16T17:55:12.999Z,3.83
2017-12-16T17:57:40.621Z,4.10
2017-12-16T18:00:08.215Z,3.90
2017-12-16T18:02:35.827Z,4.37
2017-12-16T18:05:03.428Z,5.03
2017-12-16T18:07:31.042Z,4.37
2017-12-16T18:09:58.626Z,4.07
2017-12-16T18:12:26.228Z,3.73
2017-12-16T18:14:53.850Z,4.43
2017-12-16T18:17:21.442Z,3.73
2017-12-16T18:19:49.042Z,3.83
2017-12-16T18:22:17.398Z,4.13
2017-12-16T18:24:45.787Z,3.73
2017-12-16T18:27:14.182Z,3.50
2017-12-16T18:29:41.798Z,4.00
2017-12-16T18:32:09.373Z,3.97
2017-12-16T18:34:36.963Z,3.67
2017-12-16T18:37:04.553Z,4.40
2017-12-16T18:39:32.161Z,3.77
2017-12-16T18:41:59.754Z,3.97
2017-12-16T18:44:27.342Z,3.47
2017-12-16T18:46:54.931Z,4.20
2017-12-16T18:49:22.518Z,3.80
2017-12-16T18:51:50.913Z,3.70
2017-12-16T18:54:18.489Z,3.60
2017-12-16T18:56:46.076Z,3.80
2017-12-16T18:59:13.653Z,3.00
2017-12-16T19:01:41.235Z,4.10
2017-12-16T19:04:09.619Z,3.83
2017-12-16T19:06:37.979Z,3.00
2017-12-16T19:09:05.559Z,3.90
2017-12-16T19:11:33.148Z,3.47
2017-12-16T19:14:00.730Z,3.50
2017-12-16T19:16:28.353Z,4.20
2017-12-16T19:18:56.708Z,3.23
2017-12-16T19:21:24.308Z,3.10
2017-12-16T19:23:51.902Z,3.30
2017-12-16T19:26:19.514Z,3.33
2017-12-16T19:28:47.898Z,3.90
2017-12-16T19:31:15.503Z,3.10
2017-12-16T19:33:43.113Z,3.37
2017-12-16T19:36:11.456Z,3.37
2017-12-16T19:38:39.053Z,3.60
2017-12-16T19:41:07.447Z,3.40
2017-12-16T19:43:35.751Z,3.73
2017-12-16T19:46:06.258Z,3.70
2017-12-16T19:48:45.605Z,3.20
2017-12-16T19:51:13.220Z,3.50
2017-12-16T19:53:41.584Z,3.47
2017-12-16T19:59:19.597Z,3.40
2017-12-16T20:01:59.313Z,3.30
2017-12-16T20:04:32.436Z,3.27
2017-12-16T20:07:00.042Z,2.90
2017-12-16T20:09:35.791Z,3.40
2017-12-16T20:12:03.438Z,3.23
2017-12-16T20:14:42.144Z,2.63
2017-12-16T20:17:09.729Z,3.00
2017-12-16T20:19:38.082Z,3.00
2017-12-16T20:22:05.653Z,3.63
2017-12-16T20:24:39.150Z,3.57
2017-12-16T20:27:07.730Z,3.23
2017-12-16T20:29:36.352Z,2.90
2017-12-16T20:32:04.004Z,3.50
2017-12-16T20:34:32.382Z,3.30
2017-12-16T20:37:10.729Z,3.00
2017-12-16T20:39:38.312Z,3.50
2017-12-16T20:42:05.943Z,3.47
2017-12-16T20:44:36.339Z,3.13
2017-12-16T20:47:04.797Z,2.87
2017-12-16T20:49:32.377Z,2.90
2017-12-16T20:52:03.910Z,2.73
2017-12-16T20:54:31.631Z,2.90
2017-12-16T20:57:12.240Z,3.17
2017-12-16T20:59:39.921Z,3.17
2017-12-16T21:02:08.313Z,3.30
2017-12-16T21:04:35.972Z,2.33
2017-12-16T21:07:03.621Z,3.07
2017-12-16T21:09:31.202Z,2.57
2017-12-16T21:11:59.635Z,3.03
2017-12-16T21:14:30.165Z,2.87
2017-12-16T21:16:57.754Z,3.20
2017-12-16T21:19:25.352Z,2.70
2017-12-16T21:21:52.970Z,3.10
2017-12-16T21:24:20.606Z,2.63
2017-12-16T21:26:48.229Z,2.63
2017-12-16T21:29:15.851Z,3.20
2017-12-16T21:31:43.438Z,3.07
2017-12-16T21:34:12.516Z,3.30
2017-12-16T21:36:44.206Z,3.07
2017-12-16T21:39:11.794Z,2.80
2017-12-16T21:41:39.385Z,3.20
2017-12-16T21:44:06.973Z,2.97
2017-12-16T21:46:34.555Z,2.57
2017-12-16T21:49:02.191Z,2.70
2017-12-16T21:51:29.802Z,2.17
2017-12-16T21:53:57.464Z,2.87
2017-12-16T21:56:25.053Z,2.60
2017-12-16T21:58:52.626Z,2.43
2017-12-16T22:01:20.249Z,2.27
2017-12-16T22:03:48.767Z,2.43
2017-12-16T22:06:16.354Z,2.60
2017-12-16T22:08:43.956Z,2.63
2017-12-16T22:11:11.546Z,2.90
2017-12-16T22:13:39.205Z,2.40
2017-12-16T22:16:06.791Z,2.60
2017-12-16T22:18:35.139Z,2.50
2017-12-16T22:21:02.758Z,3.10
2017-12-16T22:23:30.371Z,2.50
2017-12-16T22:25:57.998Z,2.67
2017-12-16T22:28:25.613Z,2.60
2017-12-16T22:30:54.115Z,2.67
2017-12-16T22:33:21.708Z,2.47
2017-12-16T22:35:49.297Z,2.70
2017-12-16T22:38:16.934Z,2.60
2017-12-16T22:40:44.520Z,2.57
2017-12-16T22:43:12.102Z,2.90
2017-12-16T22:45:39.681Z,2.87
2017-12-16T22:48:07.289Z,2.73
2017-12-16T22:50:34.909Z,3.00
2017-12-16T22:53:02.505Z,2.50
2017-12-16T22:55:30.090Z,2.37
2017-12-16T22:57:57.686Z,2.27
2017-12-16T23:00:25.306Z,2.50
2017-12-16T23:02:52.916Z,1.97
2017-12-16T23:05:20.520Z,2.23
2017-12-16T23:07:48.116Z,2.50
2017-12-16T23:10:16.477Z,2.67
2017-12-16T23:12:44.087Z,2.67
2017-12-16T23:15:11.742Z,2.40
2017-12-16T23:17:39.350Z,3.00
2017-12-16T23:20:06.971Z,2.50
2017-12-16T23:22:34.560Z,2.67
2017-12-16T23:25:02.136Z,2.93
2017-12-16T23:27:29.753Z,2.40
2017-12-16T23:29:57.350Z,2.80
2017-12-16T23:32:24.947Z,2.10
2017-12-16T23:34:53.310Z,2.53
2017-12-16T23:37:20.884Z,2.40
2017-12-16T23:39:49.247Z,2.50
2017-12-16T23:42:16.824Z,3.00
2017-12-16T23:44:45.172Z,2.60
2017-12-16T23:47:12.740Z,2.20
2017-12-16T23:49:40.349Z,2.30
2017-12-16T23:52:08.751Z,2.40
2017-12-16T23:54:36.343Z,2.50
2017-12-16T23:57:03.954Z,1.87
2017-12-16T23:59:31.537Z,2.33
